createdAt,value
2019-04-30T00:00:21.562Z,32.58
2019-04-30T00:02:59.732Z,29.15
2019-04-30T00:05:35.250Z,30.57
2019-04-30T00:08:09.066Z,29.72
2019-04-30T00:10:43.156Z,30.48
2019-04-30T00:13:20.681Z,32.05
2019-04-30T00:15:57.262Z,26.42
2019-04-30T00:18:30.726Z,26.27
2019-04-30T00:21:05.293Z,25.52
2019-04-30T00:23:39.073Z,24.87
2019-04-30T00:26:12.709Z,26.15
2019-04-30T00:28:47.727Z,25.27
2019-04-30T00:31:28.854Z,26.02
2019-04-30T00:34:02.655Z,24.77
2019-04-30T00:36:37.506Z,23.73
2019-04-30T00:39:13.339Z,26.23
2019-04-30T00:41:47.556Z,25.88
2019-04-30T00:44:24.818Z,27.27
2019-04-30T00:47:00.625Z,26.52
2019-04-30T00:49:35.049Z,25.82
2019-04-30T00:52:08.606Z,26.87
2019-04-30T00:54:45.221Z,24.23
2019-04-30T00:57:18.993Z,25.65
2019-04-30T00:59:52.695Z,27.32
2019-04-30T01:02:32.103Z,22.80
2019-04-30T01:05:18.634Z,23.50
2019-04-30T01:07:52.343Z,23.67
2019-04-30T01:10:28.317Z,23.67
2019-04-30T01:13:08.177Z,21.87
2019-04-30T01:15:38.968Z,20.25
2019-04-30T01:18:13.302Z,19.20
2019-04-30T01:20:48.759Z,15.53
2019-04-30T01:23:23.097Z,14.63
2019-04-30T01:25:58.551Z,13.58
2019-04-30T01:28:32.242Z,13.98
2019-04-30T01:31:06.844Z,13.13
2019-04-30T01:33:40.735Z,13.78
2019-04-30T01:36:14.447Z,15.25
2019-04-30T01:38:52.411Z,13.85
2019-04-30T01:41:27.447Z,14.55
2019-04-30T01:47:03.159Z,15.15
2019-04-30T01:49:42.864Z,14.73
2019-04-30T01:52:13.013Z,15.53
2019-04-30T01:54:46.665Z,13.90
2019-04-30T01:57:39.835Z,15.13
2019-04-30T02:00:19.795Z,16.80
2019-04-30T02:02:53.422Z,16.57
2019-04-30T02:05:28.718Z,15.70
2019-04-30T02:08:02.521Z,15.60
2019-04-30T02:10:36.556Z,15.08
2019-04-30T02:13:10.168Z,14.15
2019-04-30T02:15:45.520Z,13.98
2019-04-30T02:18:19.636Z,13.98
2019-04-30T02:20:53.137Z,16.15
2019-04-30T02:23:27.050Z,19.60
2019-04-30T02:26:03.676Z,19.02
2019-04-30T02:28:39.338Z,22.35
2019-04-30T02:31:12.960Z,20.23
2019-04-30T02:33:50.228Z,21.37
2019-04-30T02:36:25.046Z,21.70
2019-04-30T02:39:02.716Z,22.20
2019-04-30T02:44:45.989Z,23.35
2019-04-30T02:47:22.835Z,19.48
2019-04-30T02:50:11.567Z,22.62
2019-04-30T02:52:34.535Z,21.30
2019-04-30T02:55:13.713Z,21.60
2019-04-30T02:57:49.737Z,21.60
2019-04-30T03:00:22.653Z,23.00
2019-04-30T03:02:56.277Z,22.30
2019-04-30T03:05:31.159Z,23.57
2019-04-30T03:08:04.863Z,25.02
2019-04-30T03:10:40.192Z,24.00
2019-04-30T03:13:20.135Z,24.55
2019-04-30T03:15:52.896Z,25.17
2019-04-30T03:18:44.161Z,25.70
2019-04-30T03:21:33.249Z,22.95
2019-04-30T03:24:06.959Z,24.40
2019-04-30T03:26:40.695Z,24.00
2019-04-30T03:29:14.366Z,24.07
2019-04-30T03:31:51.772Z,22.95
2019-04-30T03:34:25.851Z,24.23
2019-04-30T03:37:01.704Z,22.85
2019-04-30T03:39:34.279Z,23.12
2019-04-30T03:42:14.375Z,21.80
2019-04-30T03:44:49.631Z,21.52
2019-04-30T03:47:23.544Z,21.73
2019-04-30T03:49:59.861Z,20.75
2019-04-30T03:52:39.597Z,23.98
2019-04-30T03:55:13.403Z,19.87
2019-04-30T03:57:51.645Z,21.12
2019-04-30T04:00:42.520Z,19.48
2019-04-30T04:03:16.293Z,14.38
2019-04-30T04:06:09.413Z,16.05
2019-04-30T04:08:44.589Z,13.80
2019-04-30T04:11:20.019Z,17.17
2019-04-30T04:13:53.609Z,17.23
2019-04-30T04:16:31.773Z,18.70
2019-04-30T04:19:02.732Z,17.05
2019-04-30T04:21:39.159Z,20.25
2019-04-30T04:24:12.055Z,20.17
2019-04-30T04:26:49.884Z,22.62
2019-04-30T04:29:22.013Z,23.02
2019-04-30T04:31:55.746Z,21.70
2019-04-30T04:34:30.281Z,23.50
2019-04-30T04:37:04.013Z,27.70
2019-04-30T04:39:38.970Z,28.35
2019-04-30T04:42:14.439Z,27.60
2019-04-30T04:44:50.207Z,29.40
2019-04-30T04:47:23.526Z,27.05
2019-04-30T04:49:57.164Z,27.35
2019-04-30T04:52:31.444Z,26.60
2019-04-30T04:55:10.027Z,26.50
2019-04-30T04:57:43.404Z,24.52
2019-04-30T05:00:19.225Z,26.60
2019-04-30T05:02:53.963Z,26.17
2019-04-30T05:05:29.735Z,25.43
2019-04-30T05:08:02.814Z,25.25
2019-04-30T05:10:36.464Z,25.68
2019-04-30T05:13:10.697Z,23.73
2019-04-30T05:15:44.499Z,24.45
2019-04-30T05:18:24.703Z,26.37
2019-04-30T05:20:59.025Z,26.45
2019-04-30T05:23:32.831Z,24.25
2019-04-30T05:26:06.431Z,25.75
2019-04-30T05:28:40.235Z,23.10
2019-04-30T05:31:15.537Z,27.75
2019-04-30T05:33:49.274Z,26.90
2019-04-30T05:36:22.922Z,27.15
2019-04-30T05:38:58.566Z,27.77
2019-04-30T05:41:32.284Z,27.75
2019-04-30T05:44:09.060Z,23.35
2019-04-30T05:46:42.515Z,26.82
2019-04-30T05:49:16.125Z,21.90
2019-04-30T05:51:55.513Z,23.92
2019-04-30T05:54:25.425Z,22.60
2019-04-30T05:56:59.466Z,24.02
2019-04-30T05:59:40.353Z,21.87
2019-04-30T06:02:14.396Z,20.82
2019-04-30T06:04:52.792Z,22.42
2019-04-30T06:07:26.747Z,21.02
2019-04-30T06:10:11.218Z,21.77
2019-04-30T06:12:56.489Z,21.68
2019-04-30T06:15:32.836Z,22.22
2019-04-30T06:18:11.497Z,20.27
2019-04-30T06:20:42.142Z,21.20
2019-04-30T06:23:16.227Z,19.30
2019-04-30T06:25:59.924Z,19.23
2019-04-30T06:28:29.780Z,20.20
2019-04-30T06:31:04.699Z,18.17
2019-04-30T06:33:38.924Z,15.03
2019-04-30T06:36:13.534Z,19.27
2019-04-30T06:38:48.980Z,20.55
2019-04-30T06:41:22.972Z,19.98
2019-04-30T06:43:58.653Z,20.00
2019-04-30T06:46:32.811Z,22.32
2019-04-30T06:49:09.435Z,18.67
2019-04-30T06:51:42.920Z,21.15
2019-04-30T06:54:16.540Z,22.42
2019-04-30T06:56:50.133Z,23.85
2019-04-30T06:59:24.743Z,22.27
2019-04-30T07:01:59.011Z,20.45
2019-04-30T07:04:33.075Z,20.90
2019-04-30T07:07:08.974Z,19.62
2019-04-30T07:09:51.992Z,22.73
2019-04-30T07:12:27.817Z,23.00
2019-04-30T07:14:59.258Z,22.35
2019-04-30T07:17:33.072Z,18.65
2019-04-30T07:20:07.794Z,19.98
2019-04-30T07:22:50.568Z,18.82
2019-04-30T07:25:16.823Z,20.80
2019-04-30T07:27:51.337Z,17.92
2019-04-30T07:30:30.655Z,20.17
2019-04-30T07:33:02.994Z,20.65
2019-04-30T07:35:36.712Z,20.82
2019-04-30T07:38:10.632Z,19.32
2019-04-30T07:40:44.322Z,19.82
2019-04-30T07:43:19.013Z,19.15
2019-04-30T07:45:59.807Z,20.97
2019-04-30T07:48:34.312Z,19.25
2019-04-30T07:51:10.415Z,16.80
2019-04-30T07:53:45.039Z,18.23
2019-04-30T07:56:25.578Z,18.07
2019-04-30T07:58:54.158Z,18.00
2019-04-30T08:01:29.486Z,17.90
2019-04-30T08:04:05.492Z,18.12
2019-04-30T08:06:39.905Z,18.20
2019-04-30T08:09:14.633Z,16.75
2019-04-30T08:11:50.080Z,18.10
2019-04-30T08:14:24.763Z,18.62
2019-04-30T08:16:59.034Z,18.05
2019-04-30T08:19:32.688Z,17.92
2019-04-30T08:22:09.580Z,16.77
2019-04-30T08:24:48.922Z,16.27
2019-04-30T08:27:20.549Z,17.45
2019-04-30T08:32:59.473Z,17.67
2019-04-30T08:35:32.833Z,15.05
2019-04-30T08:38:10.574Z,18.52
2019-04-30T08:40:55.614Z,17.02
2019-04-30T08:43:20.296Z,14.85
2019-04-30T08:45:55.653Z,13.30
2019-04-30T08:48:43.644Z,12.45
2019-04-30T08:51:05.079Z,14.55
2019-04-30T08:53:40.827Z,14.63
2019-04-30T08:56:14.116Z,12.50
2019-04-30T08:58:49.120Z,12.70
2019-04-30T09:01:22.962Z,14.13
2019-04-30T09:03:56.614Z,14.53
2019-04-30T09:06:31.403Z,13.05
2019-04-30T09:09:10.917Z,13.00
2019-04-30T09:11:53.028Z,12.85
2019-04-30T09:14:19.924Z,13.60
2019-04-30T09:16:54.532Z,13.85
2019-04-30T09:19:29.782Z,13.15
2019-04-30T09:22:12.381Z,12.47
2019-04-30T09:24:40.056Z,11.78
2019-04-30T09:27:14.759Z,12.73
2019-04-30T09:29:49.263Z,11.45
2019-04-30T09:32:24.043Z,11.68
2019-04-30T09:34:58.727Z,10.88
2019-04-30T09:37:32.538Z,12.18
2019-04-30T09:40:16.198Z,12.23
2019-04-30T09:42:44.125Z,12.75
2019-04-30T09:45:18.744Z,13.40
2019-04-30T09:47:52.644Z,12.37
2019-04-30T09:50:26.555Z,13.70
2019-04-30T09:53:01.014Z,12.82
2019-04-30T09:55:35.425Z,12.73
2019-04-30T09:58:17.037Z,15.10
2019-04-30T10:00:45.273Z,13.50
2019-04-30T10:03:20.038Z,13.50
2019-04-30T10:05:54.044Z,12.37
2019-04-30T10:08:30.201Z,12.78
2019-04-30T10:11:07.307Z,12.40
2019-04-30T10:13:41.027Z,13.70
2019-04-30T10:16:16.205Z,14.98
2019-04-30T10:18:49.881Z,12.88
2019-04-30T10:21:23.596Z,13.55
2019-04-30T10:24:11.915Z,14.15
2019-04-30T10:26:32.546Z,14.58
2019-04-30T10:29:07.052Z,14.53
2019-04-30T10:31:40.724Z,15.13
2019-04-30T10:34:14.789Z,15.30
2019-04-30T10:36:51.654Z,14.03
2019-04-30T10:39:26.817Z,14.23
2019-04-30T10:42:00.604Z,15.53
2019-04-30T10:44:35.330Z,15.93
2019-04-30T10:47:09.349Z,16.55
2019-04-30T10:49:43.312Z,17.30
2019-04-30T10:52:18.850Z,15.43
2019-04-30T10:54:52.350Z,16.10
2019-04-30T10:57:26.331Z,15.48
2019-04-30T11:00:00.049Z,15.38
2019-04-30T11:02:33.663Z,15.58
2019-04-30T11:05:08.893Z,18.02
2019-04-30T11:07:42.987Z,15.28
2019-04-30T11:10:18.914Z,14.98
2019-04-30T11:12:56.661Z,14.10
2019-04-30T11:15:30.415Z,14.20
2019-04-30T11:18:04.227Z,16.73
2019-04-30T11:20:39.733Z,15.60
2019-04-30T11:23:15.342Z,14.30
2019-04-30T11:25:51.778Z,14.87
2019-04-30T11:28:26.388Z,15.45
2019-04-30T11:31:11.218Z,15.48
2019-04-30T11:33:45.650Z,14.18
2019-04-30T11:36:19.712Z,15.85
2019-04-30T11:38:53.693Z,14.85
2019-04-30T11:41:30.848Z,14.43
2019-04-30T11:44:02.747Z,14.78
2019-04-30T11:47:00.743Z,12.43
2019-04-30T11:49:35.303Z,13.10
2019-04-30T11:52:10.132Z,12.95
2019-04-30T11:54:51.459Z,13.25
2019-04-30T11:57:19.763Z,13.20
2019-04-30T11:59:53.900Z,12.18
2019-04-30T12:02:32.125Z,12.00
2019-04-30T12:05:08.486Z,11.33
2019-04-30T12:07:44.394Z,10.53
2019-04-30T12:10:39.188Z,10.70
2019-04-30T12:13:27.335Z,10.63
2019-04-30T12:16:01.050Z,9.38
2019-04-30T12:18:34.763Z,9.30
2019-04-30T12:21:08.426Z,8.28
2019-04-30T12:23:42.299Z,8.30
2019-04-30T12:26:16.653Z,7.95
2019-04-30T12:42:19.684Z,8.03
2019-04-30T12:44:53.625Z,7.10
2019-04-30T12:47:29.511Z,7.37
2019-04-30T12:50:09.522Z,7.55
2019-04-30T12:52:49.487Z,8.03
2019-04-30T12:55:40.713Z,7.70
2019-04-30T12:58:14.283Z,7.05
2019-04-30T13:00:49.120Z,6.60
2019-04-30T13:03:22.756Z,5.80
2019-04-30T13:05:56.916Z,6.25
2019-04-30T13:08:31.590Z,5.35
2019-04-30T13:11:06.151Z,6.30
2019-04-30T13:13:41.100Z,6.12
2019-04-30T13:16:15.487Z,7.08
2019-04-30T13:18:49.449Z,6.80
2019-04-30T13:21:24.433Z,7.05
2019-04-30T13:23:58.971Z,6.33
2019-04-30T13:26:33.677Z,6.70
2019-04-30T13:29:08.955Z,7.30
2019-04-30T13:31:43.184Z,7.10
2019-04-30T13:34:35.450Z,6.05
2019-04-30T13:37:09.332Z,6.70
2019-04-30T13:40:00.500Z,6.28
2019-04-30T13:42:39.016Z,7.28
2019-04-30T13:45:13.185Z,6.70
2019-04-30T13:47:48.865Z,6.47
2019-04-30T13:50:22.984Z,6.80
2019-04-30T13:53:01.978Z,6.28
2019-04-30T13:55:43.653Z,6.42
2019-04-30T13:58:11.751Z,6.30
2019-04-30T14:00:45.340Z,6.33
2019-04-30T14:03:19.243Z,6.35
2019-04-30T14:05:53.064Z,6.60
2019-04-30T14:08:28.980Z,5.92
2019-04-30T14:11:02.971Z,6.28
2019-04-30T14:13:36.792Z,6.95
2019-04-30T14:16:11.138Z,6.72
2019-04-30T14:18:45.960Z,6.22
2019-04-30T14:21:32.325Z,7.78
2019-04-30T14:23:55.182Z,8.48
2019-04-30T14:26:29.263Z,8.43
2019-04-30T14:29:03.003Z,7.58
2019-04-30T14:31:36.522Z,8.40
2019-04-30T14:34:10.307Z,8.48
2019-04-30T14:36:43.826Z,8.20
2019-04-30T14:39:20.322Z,7.90
2019-04-30T14:41:56.101Z,7.00
2019-04-30T14:44:33.945Z,7.85
2019-04-30T14:47:12.923Z,13.88
2019-04-30T14:50:05.409Z,8.63
2019-04-30T14:52:57.274Z,10.60
2019-04-30T14:55:49.539Z,13.38
2019-04-30T14:58:25.386Z,12.78
2019-04-30T15:01:06.787Z,12.18
2019-04-30T15:03:41.389Z,11.68
2019-04-30T15:06:15.126Z,16.60
2019-04-30T15:08:51.920Z,12.05
2019-04-30T15:11:25.980Z,12.45
2019-04-30T15:14:00.623Z,11.60
2019-04-30T15:16:34.644Z,13.83
2019-04-30T15:19:08.642Z,12.75
2019-04-30T15:21:42.641Z,13.28
2019-04-30T15:24:23.944Z,13.68
2019-04-30T15:26:58.177Z,12.20
2019-04-30T15:29:34.813Z,12.23
2019-04-30T15:32:08.893Z,14.20
2019-04-30T15:34:42.903Z,9.83
2019-04-30T15:37:21.724Z,10.00
2019-04-30T15:42:45.648Z,8.70
2019-04-30T15:45:20.486Z,8.15
2019-04-30T15:47:54.083Z,8.00
2019-04-30T15:50:29.592Z,8.53
2019-04-30T15:53:26.375Z,7.45
2019-04-30T15:56:00.677Z,8.65
2019-04-30T15:59:22.633Z,7.97
2019-04-30T16:02:14.826Z,7.10
2019-04-30T16:05:05.470Z,7.10
2019-04-30T16:07:40.839Z,7.58
2019-04-30T16:10:18.565Z,7.53
2019-04-30T16:12:59.186Z,7.65
2019-04-30T16:15:32.816Z,7.55
2019-04-30T16:18:09.713Z,8.00
2019-04-30T16:20:50.452Z,7.83
2019-04-30T16:23:19.953Z,7.65
2019-04-30T16:25:53.656Z,7.90
2019-04-30T16:28:29.458Z,8.05
2019-04-30T16:31:02.793Z,7.58
2019-04-30T16:33:36.364Z,7.00
2019-04-30T16:36:10.122Z,7.50
2019-04-30T16:38:44.366Z,7.90
2019-04-30T16:41:30.749Z,8.65
2019-04-30T16:43:53.764Z,7.78
2019-04-30T16:46:29.468Z,7.03
2019-04-30T16:49:02.598Z,11.97
2019-04-30T16:51:36.231Z,8.80
2019-04-30T16:54:09.790Z,8.15
2019-04-30T16:56:43.389Z,7.92
2019-04-30T16:59:18.515Z,7.53
2019-04-30T17:01:57.718Z,8.43
2019-04-30T17:04:29.140Z,7.42
2019-04-30T17:07:05.588Z,8.98
2019-04-30T17:09:48.724Z,8.35
2019-04-30T17:12:26.654Z,8.85
2019-04-30T17:15:19.308Z,8.80
2019-04-30T17:17:56.115Z,7.87
2019-04-30T17:20:31.364Z,10.72
2019-04-30T17:23:05.004Z,9.60
2019-04-30T17:25:38.788Z,14.47
2019-04-30T17:28:12.512Z,10.18
2019-04-30T17:30:50.424Z,13.48
2019-04-30T17:33:24.446Z,14.85
2019-04-30T17:35:58.141Z,11.63
2019-04-30T17:41:53.868Z,130.20
2019-04-30T17:51:43.493Z,13.40
2019-04-30T17:54:17.142Z,20.37
2019-04-30T18:00:33.414Z,13.75
2019-04-30T18:03:08.860Z,15.32
2019-04-30T18:05:43.585Z,17.02
2019-04-30T18:08:17.550Z,28.60
2019-04-30T18:10:51.285Z,27.40
2019-04-30T18:20:12.462Z,32.83
2019-04-30T18:22:48.957Z,15.10
2019-04-30T18:25:26.646Z,15.88
2019-04-30T18:28:01.822Z,68.90
2019-04-30T18:37:52.726Z,21.17
2019-04-30T18:40:26.331Z,59.53
2019-04-30T18:43:00.067Z,25.75
2019-04-30T18:45:34.942Z,28.83
2019-04-30T18:48:09.702Z,53.28
2019-04-30T18:50:43.924Z,197.55
2019-04-30T18:53:19.355Z,65.97
2019-04-30T18:55:53.972Z,34.38
2019-04-30T18:58:39.249Z,84.00
2019-04-30T19:01:03.451Z,49.73
2019-04-30T19:03:39.022Z,243.88
2019-04-30T19:06:25.927Z,100.07
2019-04-30T19:09:00.283Z,126.40
2019-04-30T19:11:39.463Z,65.30
2019-04-30T19:14:13.803Z,91.63
2019-04-30T19:17:06.124Z,39.25
2019-04-30T19:19:42.235Z,27.60
2019-04-30T19:22:15.997Z,39.20
2019-04-30T19:24:58.113Z,37.05
2019-04-30T19:27:26.212Z,31.35
2019-04-30T19:29:59.704Z,29.02
2019-04-30T19:32:33.590Z,24.87
2019-04-30T19:35:09.157Z,23.35
2019-04-30T19:37:43.275Z,22.22
2019-04-30T19:40:19.017Z,22.65
2019-04-30T19:42:52.823Z,24.35
2019-04-30T19:45:26.462Z,22.77
2019-04-30T19:47:59.939Z,25.02
2019-04-30T19:50:33.497Z,48.00
2019-04-30T19:53:08.803Z,54.18
2019-04-30T19:55:42.840Z,39.70
2019-04-30T19:58:29.131Z,38.92
2019-04-30T20:00:51.608Z,61.95
2019-04-30T20:03:25.280Z,32.25
2019-04-30T20:05:58.925Z,28.57
2019-04-30T20:08:32.613Z,24.80
2019-04-30T20:11:06.017Z,26.52
2019-04-30T20:13:40.426Z,24.77
2019-04-30T20:16:14.248Z,24.50
2019-04-30T20:18:49.043Z,24.43
2019-04-30T20:21:28.724Z,25.35
2019-04-30T20:24:00.074Z,27.20
2019-04-30T20:26:33.655Z,30.37
2019-04-30T20:29:08.969Z,30.32
2019-04-30T20:31:42.844Z,28.30
2019-04-30T20:34:16.575Z,26.40
2019-04-30T20:36:50.726Z,26.87
2019-04-30T20:39:39.501Z,25.88
2019-04-30T20:42:13.138Z,28.75
2019-04-30T20:44:46.682Z,26.15
2019-04-30T20:47:21.096Z,26.93
2019-04-30T20:49:55.133Z,26.02
2019-04-30T20:52:29.101Z,27.37
2019-04-30T20:55:02.584Z,27.07
2019-04-30T20:57:36.195Z,26.70
2019-04-30T21:00:10.528Z,29.63
2019-04-30T21:02:46.194Z,28.38
2019-04-30T21:05:19.876Z,31.05
2019-04-30T21:07:53.553Z,29.80
2019-04-30T21:10:27.101Z,30.55
2019-04-30T21:13:00.795Z,31.50
2019-04-30T21:15:34.533Z,28.35
2019-04-30T21:18:10.977Z,27.70
2019-04-30T21:20:44.721Z,28.27
2019-04-30T21:23:19.442Z,30.85
2019-04-30T21:25:54.296Z,29.57
2019-04-30T21:28:29.654Z,28.67
2019-04-30T21:31:06.030Z,29.90
2019-04-30T21:33:41.664Z,28.65
2019-04-30T21:36:18.406Z,28.73
2019-04-30T21:38:52.241Z,32.70
2019-04-30T21:41:26.214Z,28.70
2019-04-30T21:43:59.836Z,29.80
2019-04-30T21:46:33.393Z,28.40
2019-04-30T21:49:08.897Z,31.33
2019-04-30T21:51:42.254Z,32.55
2019-04-30T21:54:16.244Z,32.85
2019-04-30T21:56:50.273Z,32.10
2019-04-30T21:59:24.791Z,35.35
2019-04-30T22:01:58.594Z,36.15
2019-04-30T22:04:32.215Z,36.25
2019-04-30T22:07:06.053Z,38.70
2019-04-30T22:09:39.744Z,40.10
2019-04-30T22:12:13.411Z,40.17
2019-04-30T22:14:47.022Z,44.48
2019-04-30T22:17:20.565Z,45.12
2019-04-30T22:19:54.162Z,38.45
2019-04-30T22:22:29.193Z,40.12
2019-04-30T22:25:02.811Z,40.03
2019-04-30T22:27:36.286Z,39.63
2019-04-30T22:30:10.137Z,42.53
2019-04-30T22:32:43.692Z,46.75
2019-04-30T22:35:26.223Z,49.53
2019-04-30T22:38:11.067Z,55.40
2019-04-30T22:40:45.048Z,55.08
2019-04-30T22:43:18.594Z,56.77
2019-04-30T22:45:54.542Z,61.88
2019-04-30T22:48:28.688Z,60.90
2019-04-30T22:51:02.300Z,58.05
2019-04-30T22:53:35.842Z,53.70
2019-04-30T22:56:10.416Z,54.98
2019-04-30T22:58:43.987Z,60.63
2019-04-30T23:01:23.377Z,57.10
2019-04-30T23:03:59.493Z,58.25
2019-04-30T23:06:33.113Z,57.97
2019-04-30T23:09:11.595Z,59.20
2019-04-30T23:11:45.652Z,58.30
2019-04-30T23:14:20.311Z,55.35
2019-04-30T23:17:06.363Z,56.53
2019-04-30T23:19:39.913Z,60.90
2019-04-30T23:25:36.052Z,55.48
2019-04-30T23:28:09.650Z,57.10
2019-04-30T23:30:46.619Z,59.05
2019-04-30T23:33:20.182Z,57.03
2019-04-30T23:35:53.875Z,55.27
2019-04-30T23:38:27.431Z,56.40
2019-04-30T23:41:02.038Z,56.25
2019-04-30T23:43:35.597Z,59.30
2019-04-30T23:46:09.225Z,56.77
2019-04-30T23:48:43.035Z,55.50
2019-04-30T23:51:17.064Z,53.83
2019-04-30T23:53:50.717Z,56.88
2019-04-30T23:56:24.382Z,54.15
2019-04-30T23:58:57.972Z,55.78
